createdAt,value
2023-02-16T00:02:35.136Z,25.50
2023-02-16T00:05:38.319Z,26.30
2023-02-16T00:08:42.901Z,28.53
2023-02-16T00:12:05.452Z,26.92
2023-02-16T00:15:18.794Z,24.98
2023-02-16T00:18:22.757Z,24.13
2023-02-16T00:21:26.025Z,27.27
2023-02-16T00:24:30.420Z,27.02
2023-02-16T00:27:33.796Z,27.58
2023-02-16T00:30:37.122Z,27.02
2023-02-16T00:33:43.037Z,26.90
2023-02-16T00:36:46.810Z,27.08
2023-02-16T00:40:16.465Z,25.57
2023-02-16T00:43:30.549Z,26.00
2023-02-16T00:46:35.163Z,26.38
2023-02-16T00:49:38.469Z,29.00
2023-02-16T00:52:46.388Z,27.63
2023-02-16T00:55:49.605Z,27.30
2023-02-16T00:58:53.686Z,27.58
2023-02-16T01:01:57.686Z,27.40
2023-02-16T01:05:01.134Z,28.75
2023-02-16T01:08:33.646Z,27.60
2023-02-16T01:11:36.986Z,26.33
2023-02-16T01:14:40.207Z,26.80
2023-02-16T01:17:43.412Z,26.08
2023-02-16T01:20:47.440Z,26.33
2023-02-16T01:23:50.752Z,28.40
2023-02-16T01:26:55.538Z,26.88
2023-02-16T01:30:23.522Z,27.42
2023-02-16T01:33:26.770Z,26.67
2023-02-16T01:36:37.170Z,28.67
2023-02-16T01:39:43.077Z,27.55
2023-02-16T01:42:52.134Z,28.80
2023-02-16T01:46:06.666Z,26.77
2023-02-16T01:49:15.543Z,26.45
2023-02-16T01:52:36.872Z,27.37
2023-02-16T01:55:44.212Z,27.17
2023-02-16T01:58:52.760Z,27.92
2023-02-16T02:02:04.878Z,28.15
2023-02-16T02:05:37.978Z,28.45
2023-02-16T02:09:02.052Z,27.90
2023-02-16T02:12:36.965Z,27.48
2023-02-16T02:15:40.628Z,28.20
2023-02-16T02:18:45.032Z,27.73
2023-02-16T02:22:13.185Z,27.50
2023-02-16T02:25:50.674Z,28.40
2023-02-16T02:29:03.003Z,27.15
2023-02-16T02:32:25.276Z,30.38
2023-02-16T02:36:10.440Z,27.60
2023-02-16T02:39:20.039Z,27.42
2023-02-16T02:43:04.069Z,27.75
2023-02-16T02:46:24.845Z,28.23
2023-02-16T02:49:28.373Z,27.97
2023-02-16T02:52:31.905Z,27.83
2023-02-16T02:55:58.944Z,27.00
2023-02-16T02:59:27.815Z,27.80
2023-02-16T03:02:35.838Z,27.45
2023-02-16T03:05:41.939Z,27.90
2023-02-16T03:08:51.404Z,29.23
2023-02-16T03:12:15.683Z,28.48
2023-02-16T03:15:20.583Z,27.40
2023-02-16T03:18:47.022Z,28.85
2023-02-16T03:22:08.983Z,26.30
2023-02-16T03:25:30.581Z,26.98
2023-02-16T03:28:55.306Z,27.67
2023-02-16T03:31:59.161Z,26.73
2023-02-16T03:35:02.879Z,29.02
2023-02-16T03:38:06.350Z,28.67
2023-02-16T03:41:09.514Z,27.75
2023-02-16T03:44:12.641Z,28.95
2023-02-16T03:47:16.411Z,28.63
2023-02-16T03:50:19.800Z,27.88
2023-02-16T03:53:23.161Z,27.13
2023-02-16T03:56:26.352Z,28.73
2023-02-16T03:59:30.350Z,27.58
2023-02-16T04:02:33.587Z,27.63
2023-02-16T04:05:37.646Z,27.75
2023-02-16T04:08:40.878Z,26.05
2023-02-16T04:12:02.534Z,27.23
2023-02-16T04:15:11.618Z,26.75
2023-02-16T04:18:16.149Z,26.90
2023-02-16T04:21:19.291Z,26.77
2023-02-16T04:24:22.612Z,27.87
2023-02-16T04:27:25.782Z,27.50
2023-02-16T04:30:31.241Z,27.98
2023-02-16T04:33:34.458Z,26.37
2023-02-16T04:36:37.789Z,26.75
2023-02-16T04:39:41.167Z,27.38
2023-02-16T04:42:45.445Z,26.70
2023-02-16T04:45:48.744Z,25.70
2023-02-16T04:48:52.566Z,27.33
2023-02-16T04:51:55.964Z,29.50
2023-02-16T04:54:59.539Z,28.40
2023-02-16T04:58:02.729Z,27.48
2023-02-16T05:01:06.545Z,28.30
2023-02-16T05:04:10.437Z,27.83
2023-02-16T05:07:13.738Z,28.67
2023-02-16T05:10:16.971Z,29.73
2023-02-16T05:13:40.257Z,30.05
2023-02-16T05:16:45.903Z,27.75
2023-02-16T05:19:54.637Z,28.88
2023-02-16T05:22:57.895Z,29.65
2023-02-16T05:26:01.100Z,28.63
2023-02-16T05:29:11.965Z,27.58
2023-02-16T05:32:39.048Z,27.70
2023-02-16T05:35:42.215Z,27.30
2023-02-16T05:38:45.456Z,27.65
2023-02-16T05:41:49.898Z,29.60
2023-02-16T05:44:53.119Z,27.88
2023-02-16T05:48:18.940Z,26.55
2023-02-16T05:51:22.568Z,27.27
2023-02-16T05:54:25.911Z,25.50
2023-02-16T05:57:29.268Z,23.97
2023-02-16T06:00:33.720Z,24.30
2023-02-16T06:03:37.587Z,24.17
2023-02-16T06:06:41.134Z,23.87
2023-02-16T06:09:44.456Z,25.98
2023-02-16T06:12:47.638Z,27.10
2023-02-16T06:15:56.189Z,26.38
2023-02-16T06:19:00.154Z,30.02
2023-02-16T06:22:03.517Z,30.42
2023-02-16T06:25:06.961Z,32.70
2023-02-16T06:28:17.323Z,31.37
2023-02-16T06:31:30.796Z,34.85
2023-02-16T06:34:36.415Z,33.55
2023-02-16T06:37:39.662Z,32.97
2023-02-16T06:40:43.054Z,33.88
2023-02-16T06:43:46.517Z,32.90
2023-02-16T06:46:50.471Z,33.75
2023-02-16T06:49:56.383Z,31.83
2023-02-16T06:56:26.627Z,31.52
2023-02-16T06:59:52.200Z,32.10
2023-02-16T07:02:55.748Z,30.73
2023-02-16T07:06:23.212Z,31.13
2023-02-16T07:09:27.834Z,31.40
2023-02-16T07:12:58.328Z,25.92
2023-02-16T07:16:09.452Z,31.88
2023-02-16T07:19:26.668Z,28.73
2023-02-16T07:22:33.912Z,30.65
2023-02-16T07:25:41.125Z,30.23
2023-02-16T07:28:44.713Z,31.55
2023-02-16T07:31:51.706Z,27.90
2023-02-16T07:34:55.536Z,30.08
2023-02-16T07:38:20.449Z,30.02
2023-02-16T07:41:25.109Z,29.77
2023-02-16T07:44:36.212Z,31.00
2023-02-16T07:47:39.531Z,30.55
2023-02-16T07:50:45.554Z,29.58
2023-02-16T07:53:49.049Z,29.17
2023-02-16T07:56:52.583Z,30.30
2023-02-16T07:59:56.357Z,29.98
2023-02-16T08:03:02.667Z,29.40
2023-02-16T08:06:07.545Z,29.98
2023-02-16T08:09:16.119Z,31.13
2023-02-16T08:12:22.720Z,29.97
2023-02-16T08:15:25.999Z,28.20
2023-02-16T08:18:33.564Z,26.55
2023-02-16T08:21:39.963Z,30.13
2023-02-16T08:24:43.575Z,27.02
2023-02-16T08:27:54.356Z,28.35
2023-02-16T08:31:10.997Z,28.45
2023-02-16T08:34:18.879Z,28.97
2023-02-16T08:37:25.678Z,29.48
2023-02-16T08:40:32.845Z,29.77
2023-02-16T08:43:36.465Z,30.80
2023-02-16T08:46:42.710Z,28.95
2023-02-16T08:49:46.898Z,29.83
2023-02-16T08:52:50.110Z,30.98
2023-02-16T08:55:57.805Z,27.45
2023-02-16T08:59:07.179Z,30.77
2023-02-16T09:02:16.971Z,29.17
2023-02-16T09:05:32.197Z,24.23
2023-02-16T09:08:39.468Z,30.88
2023-02-16T09:11:49.570Z,29.15
2023-02-16T09:15:02.496Z,27.30
2023-02-16T09:18:09.239Z,28.83
2023-02-16T09:21:15.978Z,29.05
2023-02-16T09:24:22.073Z,27.25
2023-02-16T09:27:26.109Z,28.40
2023-02-16T09:30:32.469Z,27.05
2023-02-16T09:33:36.137Z,25.65
2023-02-16T09:36:39.669Z,25.53
2023-02-16T09:39:43.085Z,25.33
2023-02-16T09:42:58.761Z,23.50
2023-02-16T09:46:03.625Z,23.77
2023-02-16T09:49:11.705Z,22.83
2023-02-16T09:52:28.666Z,22.60
2023-02-16T09:55:42.244Z,23.75
2023-02-16T10:04:23.593Z,22.33
2023-02-16T10:07:51.916Z,22.30
2023-02-16T10:11:29.183Z,21.13
2023-02-16T10:14:52.166Z,22.88
2023-02-16T10:18:05.190Z,21.80
2023-02-16T10:21:15.964Z,22.02
2023-02-16T10:24:19.533Z,20.48
2023-02-16T10:27:23.177Z,20.52
2023-02-16T10:30:29.670Z,17.38
2023-02-16T10:33:33.947Z,18.38
2023-02-16T10:36:46.436Z,21.02
2023-02-16T10:40:27.266Z,19.90
2023-02-16T10:43:35.289Z,19.38
2023-02-16T10:46:47.203Z,18.47
2023-02-16T10:49:52.243Z,19.67
2023-02-16T10:53:14.057Z,18.52
2023-02-16T10:56:44.579Z,18.70
2023-02-16T10:59:48.435Z,18.00
2023-02-16T11:02:53.867Z,18.27
2023-02-16T11:06:21.845Z,13.70
2023-02-16T11:09:29.048Z,15.25
2023-02-16T11:12:39.100Z,13.50
2023-02-16T11:15:43.267Z,17.27
2023-02-16T11:19:08.260Z,14.90
2023-02-16T11:22:31.309Z,16.20
2023-02-16T11:25:34.703Z,14.43
2023-02-16T11:28:46.599Z,11.98
2023-02-16T11:31:49.989Z,14.88
2023-02-16T11:34:54.086Z,13.83
2023-02-16T11:37:57.544Z,14.82
2023-02-16T11:41:07.266Z,11.00
2023-02-16T11:44:28.656Z,15.38
2023-02-16T11:47:43.346Z,15.00
2023-02-16T11:51:00.022Z,12.27
2023-02-16T11:54:07.829Z,12.02
2023-02-16T11:57:15.655Z,14.00
2023-02-16T12:00:24.889Z,13.38
2023-02-16T12:03:51.856Z,13.77
2023-02-16T12:06:55.739Z,14.20
2023-02-16T12:10:08.989Z,14.52
2023-02-16T12:13:28.985Z,12.00
2023-02-16T12:16:46.835Z,15.23
2023-02-16T12:20:07.089Z,14.07
2023-02-16T12:23:28.232Z,12.50
2023-02-16T12:26:41.630Z,15.27
2023-02-16T12:30:09.954Z,13.63
2023-02-16T12:33:49.697Z,15.45
2023-02-16T12:36:52.910Z,13.60
2023-02-16T12:40:00.794Z,15.47
2023-02-16T12:43:45.177Z,10.48
2023-02-16T12:46:58.186Z,14.45
2023-02-16T12:50:08.040Z,14.23
2023-02-16T12:53:47.076Z,15.75
2023-02-16T12:57:13.432Z,13.47
2023-02-16T13:00:25.518Z,13.23
2023-02-16T13:03:37.287Z,15.63
2023-02-16T13:06:57.454Z,14.90
2023-02-16T13:10:30.861Z,14.15
2023-02-16T13:13:35.691Z,15.67
2023-02-16T13:16:44.117Z,14.82
2023-02-16T13:19:49.337Z,15.43
2023-02-16T13:23:01.793Z,12.95
2023-02-16T13:26:11.178Z,13.55
2023-02-16T13:29:45.285Z,14.93
2023-02-16T13:33:08.422Z,15.23
2023-02-16T13:36:34.004Z,15.65
2023-02-16T13:39:40.998Z,16.70
2023-02-16T13:43:03.913Z,16.58
2023-02-16T13:46:35.478Z,16.83
2023-02-16T13:49:44.078Z,16.05
2023-02-16T13:52:48.760Z,17.40
2023-02-16T13:56:15.186Z,16.33
2023-02-16T13:59:18.724Z,18.48
2023-02-16T14:02:52.681Z,18.10
2023-02-16T14:06:34.129Z,18.25
2023-02-16T14:09:40.273Z,14.50
2023-02-16T14:12:44.493Z,17.20
2023-02-16T14:15:56.588Z,15.00
2023-02-16T14:19:23.032Z,19.13
2023-02-16T14:22:38.596Z,18.48
2023-02-16T14:25:42.467Z,19.55
2023-02-16T14:29:10.436Z,14.57
2023-02-16T14:32:19.626Z,17.27
2023-02-16T14:35:28.953Z,17.17
2023-02-16T14:38:34.499Z,18.35
2023-02-16T14:41:39.009Z,14.15
2023-02-16T14:44:48.238Z,14.20
2023-02-16T14:48:17.352Z,14.25
2023-02-16T14:51:56.930Z,19.43
2023-02-16T14:55:24.529Z,19.88
2023-02-16T14:58:51.933Z,16.60
2023-02-16T15:01:55.987Z,15.10
2023-02-16T15:05:14.531Z,17.15
2023-02-16T15:08:19.316Z,20.00
2023-02-16T15:12:24.342Z,19.52
2023-02-16T15:15:48.713Z,17.45
2023-02-16T15:18:58.285Z,19.50
2023-02-16T15:22:28.780Z,14.65
2023-02-16T15:25:33.998Z,17.77
2023-02-16T15:28:39.527Z,17.40
2023-02-16T15:31:47.225Z,16.35
2023-02-16T15:34:50.686Z,16.33
2023-02-16T15:38:21.185Z,17.85
2023-02-16T15:41:34.645Z,19.60
2023-02-16T15:44:39.245Z,17.02
2023-02-16T15:47:44.691Z,19.15
2023-02-16T15:50:50.657Z,16.50
2023-02-16T15:53:57.392Z,18.92
2023-02-16T15:57:04.228Z,18.07
2023-02-16T16:00:20.874Z,19.25
2023-02-16T16:03:26.742Z,20.20
2023-02-16T16:06:38.214Z,19.95
2023-02-16T16:09:42.919Z,19.23
2023-02-16T16:12:48.224Z,18.43
2023-02-16T16:15:53.944Z,20.02
2023-02-16T16:19:08.177Z,19.25
2023-02-16T16:22:39.800Z,20.20
2023-02-16T16:25:46.494Z,20.38
2023-02-16T16:28:50.682Z,19.40
2023-02-16T16:31:54.723Z,21.13
2023-02-16T16:34:58.154Z,18.45
2023-02-16T16:38:05.028Z,23.33
2023-02-16T16:41:27.487Z,22.85
2023-02-16T16:44:43.546Z,23.30
2023-02-16T16:47:52.214Z,23.17
2023-02-16T16:51:10.726Z,23.25
2023-02-16T16:54:35.831Z,22.83
2023-02-16T16:57:39.238Z,24.10
2023-02-16T17:00:42.918Z,21.63
2023-02-16T17:03:46.644Z,23.27
2023-02-16T17:06:49.828Z,22.95
2023-02-16T17:09:53.293Z,24.40
2023-02-16T17:13:00.071Z,23.67
2023-02-16T17:16:15.776Z,23.70
2023-02-16T17:19:22.056Z,24.13
2023-02-16T17:22:25.644Z,24.42
2023-02-16T17:25:28.857Z,23.35
2023-02-16T17:28:36.718Z,23.88
2023-02-16T17:31:40.621Z,23.70
2023-02-16T17:34:44.781Z,23.58
2023-02-16T17:37:48.311Z,24.33
2023-02-16T17:40:54.029Z,24.95
2023-02-16T17:43:57.939Z,25.27
2023-02-16T17:47:01.164Z,25.00
2023-02-16T17:50:05.343Z,25.42
2023-02-16T17:53:14.411Z,26.88
2023-02-16T17:56:20.952Z,26.58
2023-02-16T17:59:24.498Z,27.53
2023-02-16T18:02:28.243Z,31.08
2023-02-16T18:05:32.218Z,32.40
2023-02-16T18:08:38.339Z,32.22
2023-02-16T18:11:42.099Z,32.03
2023-02-16T18:14:45.794Z,33.50
2023-02-16T18:17:48.974Z,33.10
2023-02-16T18:20:54.283Z,33.90
2023-02-16T18:23:57.580Z,34.88
2023-02-16T18:27:01.342Z,36.20
2023-02-16T18:30:06.198Z,36.63
2023-02-16T18:33:10.351Z,36.50
2023-02-16T18:36:13.468Z,36.33
2023-02-16T18:39:17.228Z,36.78
2023-02-16T18:42:21.087Z,37.97
2023-02-16T18:45:24.837Z,37.88
2023-02-16T18:48:28.715Z,38.42
2023-02-16T18:51:33.608Z,38.78
2023-02-16T18:54:37.186Z,40.67
2023-02-16T18:57:40.861Z,40.33
2023-02-16T19:00:48.715Z,41.97
2023-02-16T19:03:52.310Z,42.03
2023-02-16T19:06:56.029Z,41.73
2023-02-16T19:09:59.375Z,42.08
2023-02-16T19:13:03.369Z,41.33
2023-02-16T19:16:07.457Z,40.85
2023-02-16T19:19:11.509Z,43.33
2023-02-16T19:22:15.353Z,44.60
2023-02-16T19:25:19.428Z,45.08
2023-02-16T19:28:22.969Z,44.50
2023-02-16T19:31:32.130Z,45.80
2023-02-16T19:34:35.713Z,44.47
2023-02-16T19:37:39.523Z,44.67
2023-02-16T19:40:43.124Z,44.90
2023-02-16T19:43:47.211Z,45.37
2023-02-16T19:46:50.700Z,44.30
2023-02-16T19:49:54.157Z,45.97
2023-02-16T19:52:57.675Z,46.75
2023-02-16T19:56:03.840Z,46.17
2023-02-16T19:59:08.750Z,46.17
2023-02-16T20:02:15.514Z,45.35
2023-02-16T20:05:19.219Z,45.03
2023-02-16T20:08:22.768Z,45.73
2023-02-16T20:11:28.140Z,46.95
2023-02-16T20:14:31.967Z,46.45
2023-02-16T20:17:35.521Z,45.92
2023-02-16T20:20:39.134Z,47.33
2023-02-16T20:23:43.854Z,45.60
2023-02-16T20:26:49.185Z,46.42
2023-02-16T20:29:52.716Z,45.65
2023-02-16T20:32:56.027Z,46.40
2023-02-16T20:35:59.576Z,47.20
2023-02-16T20:39:04.286Z,45.55
2023-02-16T20:42:08.439Z,45.42
2023-02-16T20:45:13.380Z,45.90
2023-02-16T20:48:17.042Z,43.78
2023-02-16T20:51:20.972Z,44.20
2023-02-16T20:54:24.594Z,43.40
2023-02-16T20:57:28.431Z,43.47
2023-02-16T21:00:32.561Z,42.63
2023-02-16T21:03:36.109Z,42.70
2023-02-16T21:06:39.922Z,43.88
2023-02-16T21:09:44.072Z,45.87
2023-02-16T21:12:47.737Z,44.28
2023-02-16T21:15:51.686Z,45.00
2023-02-16T21:18:55.221Z,43.20
2023-02-16T21:21:58.871Z,40.80
2023-02-16T21:25:02.457Z,42.88
2023-02-16T21:28:05.878Z,43.88
2023-02-16T21:31:12.743Z,44.22
2023-02-16T21:34:16.068Z,43.03
2023-02-16T21:37:19.247Z,41.88
2023-02-16T21:40:41.446Z,42.05
2023-02-16T21:43:45.130Z,41.58
2023-02-16T21:46:48.913Z,41.37
2023-02-16T21:49:52.276Z,40.42
2023-02-16T21:52:56.100Z,42.67
2023-02-16T21:56:19.552Z,40.58
2023-02-16T21:59:22.938Z,41.47
2023-02-16T22:02:26.825Z,38.65
2023-02-16T22:05:30.350Z,41.33
2023-02-16T22:08:38.054Z,39.87
2023-02-16T22:11:41.853Z,38.28
2023-02-16T22:14:45.172Z,39.45
2023-02-16T22:17:49.551Z,40.63
2023-02-16T22:20:53.199Z,40.60
2023-02-16T22:23:57.251Z,41.75
2023-02-16T22:27:00.700Z,42.35
2023-02-16T22:30:05.545Z,41.45
2023-02-16T22:33:08.929Z,41.28
2023-02-16T22:36:15.892Z,40.92
2023-02-16T22:39:20.107Z,38.78
2023-02-16T22:42:23.829Z,39.23
2023-02-16T22:45:27.158Z,37.85
2023-02-16T22:48:30.575Z,38.03
2023-02-16T22:51:34.196Z,36.13
2023-02-16T22:54:37.913Z,36.40
2023-02-16T22:57:41.064Z,37.47
2023-02-16T23:00:47.024Z,37.83
2023-02-16T23:03:53.568Z,39.80
2023-02-16T23:06:56.858Z,39.50
2023-02-16T23:10:00.197Z,41.20
2023-02-16T23:13:04.138Z,39.08
2023-02-16T23:16:17.924Z,42.63
2023-02-16T23:19:24.593Z,42.25
2023-02-16T23:22:29.886Z,41.30
2023-02-16T23:25:33.050Z,41.65
2023-02-16T23:28:38.291Z,42.85
2023-02-16T23:31:44.067Z,44.65
2023-02-16T23:34:47.345Z,43.72
2023-02-16T23:37:50.524Z,43.57
2023-02-16T23:41:01.831Z,44.67
2023-02-16T23:44:06.132Z,44.20
2023-02-16T23:47:09.386Z,41.60
2023-02-16T23:50:13.215Z,41.23
2023-02-16T23:53:16.795Z,42.83
2023-02-16T23:56:26.482Z,43.65
2023-02-16T23:59:29.812Z,41.63
